createdAt,value
2022-12-06T00:00:05.412Z,0.000000
2022-12-06T00:01:00.918Z,0.000000
2022-12-06T00:02:01.090Z,0.000000
2022-12-06T00:03:01.001Z,0.000000
2022-12-06T00:04:01.034Z,0.000000
2022-12-06T00:05:03.963Z,5.600000
2022-12-06T00:06:01.039Z,5.600000
2022-12-06T00:07:00.951Z,5.600000
2022-12-06T00:08:01.130Z,5.600000
2022-12-06T00:09:00.984Z,5.600000
2022-12-06T00:10:04.128Z,0.000000
2022-12-06T00:11:00.971Z,0.000000
2022-12-06T00:12:01.917Z,0.000000
2022-12-06T00:13:00.969Z,0.000000
2022-12-06T00:14:01.070Z,0.000000
2022-12-06T00:15:04.368Z,4.600000
2022-12-06T00:16:01.190Z,4.600000
2022-12-06T00:17:01.062Z,4.600000
2022-12-06T00:18:01.122Z,4.600000
2022-12-06T00:19:01.014Z,4.600000
2022-12-06T00:20:04.594Z,4.800000
2022-12-06T00:21:01.071Z,4.800000
2022-12-06T00:22:01.136Z,4.800000
2022-12-06T00:23:01.076Z,0.000000
2022-12-06T00:24:01.160Z,0.000000
2022-12-06T00:25:04.036Z,0.000000
2022-12-06T00:26:01.961Z,0.000000
2022-12-06T00:27:01.107Z,0.000000
2022-12-06T00:28:01.169Z,0.000000
2022-12-06T00:29:01.107Z,0.000000
2022-12-06T00:30:04.314Z,0.000000
2022-12-06T00:31:01.127Z,0.000000
2022-12-06T00:32:01.328Z,0.000000
2022-12-06T00:33:01.174Z,0.000000
2022-12-06T00:34:01.203Z,0.000000
2022-12-06T00:35:04.041Z,0.000000
2022-12-06T00:36:01.262Z,0.000000
2022-12-06T00:37:01.154Z,0.000000
2022-12-06T00:38:01.292Z,0.000000
2022-12-06T00:39:01.190Z,0.000000
2022-12-06T00:40:04.550Z,0.000000
2022-12-06T00:41:00.185Z,0.000000
2022-12-06T00:42:00.283Z,0.000000
2022-12-06T00:43:00.184Z,0.000000
2022-12-06T00:44:01.968Z,0.000000
2022-12-06T00:45:03.693Z,0.000000
2022-12-06T00:46:00.329Z,0.000000
2022-12-06T00:47:00.223Z,0.000000
2022-12-06T00:48:00.298Z,0.000000
2022-12-06T00:49:00.264Z,0.000000
2022-12-06T00:50:05.246Z,0.000000
2022-12-06T00:51:00.276Z,0.000000
2022-12-06T00:52:00.326Z,0.000000
2022-12-06T00:53:00.281Z,0.000000
2022-12-06T00:54:00.372Z,0.000000
2022-12-06T00:55:03.619Z,0.000000
2022-12-06T00:56:00.374Z,0.000000
2022-12-06T00:57:00.313Z,0.000000
2022-12-06T00:58:01.926Z,0.000000
2022-12-06T00:59:00.299Z,0.000000
2022-12-06T01:00:03.924Z,0.000000
2022-12-06T01:01:00.358Z,0.000000
2022-12-06T01:02:02.005Z,0.000000
2022-12-06T01:03:00.376Z,0.000000
2022-12-06T01:04:00.390Z,0.000000
2022-12-06T01:05:03.695Z,0.000000
2022-12-06T01:06:01.939Z,0.000000
2022-12-06T01:07:00.353Z,0.000000
2022-12-06T01:08:00.478Z,0.000000
2022-12-06T01:09:00.388Z,0.000000
2022-12-06T01:10:03.708Z,0.000000
2022-12-06T01:11:00.377Z,0.000000
2022-12-06T01:12:00.459Z,0.000000
2022-12-06T01:13:00.392Z,0.000000
2022-12-06T01:14:01.959Z,0.000000
2022-12-06T01:15:03.765Z,0.000000
2022-12-06T01:16:00.475Z,0.000000
2022-12-06T01:17:00.483Z,0.000000
2022-12-06T01:18:00.507Z,0.000000
2022-12-06T01:19:00.450Z,0.000000
2022-12-06T01:20:03.987Z,0.000000
2022-12-06T01:21:00.469Z,0.000000
2022-12-06T01:22:00.542Z,0.000000
2022-12-06T01:23:00.452Z,0.000000
2022-12-06T01:24:00.537Z,0.000000
2022-12-06T01:25:03.672Z,0.000000
2022-12-06T01:26:00.559Z,0.000000
2022-12-06T01:27:00.512Z,0.000000
2022-12-06T01:28:01.943Z,0.000000
2022-12-06T01:29:00.517Z,0.000000
2022-12-06T01:30:04.987Z,0.000000
2022-12-06T01:31:00.556Z,0.000000
2022-12-06T01:32:00.632Z,0.000000
2022-12-06T01:33:00.527Z,0.000000
2022-12-06T01:34:00.591Z,0.000000
2022-12-06T01:35:03.741Z,0.000000
2022-12-06T01:36:00.639Z,0.000000
2022-12-06T01:37:00.764Z,0.000000
2022-12-06T01:38:06.003Z,0.000000
2022-12-06T01:39:00.569Z,0.000000
2022-12-06T01:40:04.046Z,0.000000
2022-12-06T01:41:00.562Z,0.000000
2022-12-06T01:42:02.012Z,0.000000
2022-12-06T01:43:00.602Z,0.000000
2022-12-06T01:44:00.711Z,0.000000
2022-12-06T01:45:05.280Z,0.000000
2022-12-06T01:46:00.744Z,0.000000
2022-12-06T01:47:00.634Z,0.000000
2022-12-06T01:48:00.731Z,0.000000
2022-12-06T01:49:00.641Z,0.000000
2022-12-06T01:50:03.880Z,0.000000
2022-12-06T01:51:00.671Z,0.000000
2022-12-06T01:52:00.727Z,0.000000
2022-12-06T01:53:00.704Z,0.000000
2022-12-06T01:54:00.751Z,0.000000
2022-12-06T01:55:03.713Z,0.000000
2022-12-06T01:56:01.992Z,0.000000
2022-12-06T01:57:00.722Z,0.000000
2022-12-06T01:58:00.784Z,0.000000
2022-12-06T01:59:00.705Z,0.000000
2022-12-06T02:00:04.205Z,0.000000
2022-12-06T02:01:00.787Z,0.000000
2022-12-06T02:02:00.965Z,0.000000
2022-12-06T02:03:00.852Z,0.000000
2022-12-06T02:04:00.807Z,0.000000
2022-12-06T02:05:03.732Z,0.000000
2022-12-06T02:06:00.845Z,0.000000
2022-12-06T02:07:00.763Z,0.000000
2022-12-06T02:08:00.929Z,0.000000
2022-12-06T02:09:00.807Z,0.000000
2022-12-06T02:10:04.122Z,0.000000
2022-12-06T02:11:00.772Z,0.000000
2022-12-06T02:12:00.855Z,0.000000
2022-12-06T02:13:00.803Z,0.000000
2022-12-06T02:14:00.910Z,0.000000
2022-12-06T02:15:03.757Z,0.000000
2022-12-06T02:16:01.947Z,0.000000
2022-12-06T02:17:00.876Z,0.000000
2022-12-06T02:18:00.926Z,0.000000
2022-12-06T02:19:00.830Z,4.900000
2022-12-06T02:20:04.289Z,4.900000
2022-12-06T02:21:00.836Z,0.000000
2022-12-06T02:22:00.911Z,0.000000
2022-12-06T02:23:00.835Z,0.000000
2022-12-06T02:24:00.941Z,4.100000
2022-12-06T02:25:03.965Z,4.100000
2022-12-06T02:26:00.968Z,4.100000
2022-12-06T02:27:00.886Z,0.000000
2022-12-06T02:28:00.938Z,0.000000
2022-12-06T02:29:00.895Z,0.000000
2022-12-06T02:30:05.398Z,0.000000
2022-12-06T02:31:00.942Z,0.000000
2022-12-06T02:32:00.989Z,0.000000
2022-12-06T02:33:00.918Z,0.000000
2022-12-06T02:34:01.011Z,0.000000
2022-12-06T02:35:03.818Z,0.000000
2022-12-06T02:36:01.015Z,0.000000
2022-12-06T02:37:00.940Z,0.000000
2022-12-06T02:38:01.062Z,0.000000
2022-12-06T02:39:00.960Z,4.000000
2022-12-06T02:40:05.852Z,4.000000
2022-12-06T02:41:00.972Z,0.000000
2022-12-06T02:42:01.051Z,0.000000
2022-12-06T02:43:00.986Z,0.000000
2022-12-06T02:44:01.968Z,0.000000
2022-12-06T02:45:03.996Z,0.000000
2022-12-06T02:46:01.107Z,0.000000
2022-12-06T02:47:01.021Z,0.000000
2022-12-06T02:48:01.113Z,0.000000
2022-12-06T02:49:01.234Z,0.000000
2022-12-06T02:50:04.496Z,0.000000
2022-12-06T02:51:01.062Z,6.800000
2022-12-06T02:52:01.112Z,6.800000
2022-12-06T02:53:01.061Z,6.800000
2022-12-06T02:54:01.158Z,0.000000
2022-12-06T02:55:03.995Z,0.000000
2022-12-06T02:56:01.226Z,0.000000
2022-12-06T02:57:01.081Z,4.600000
2022-12-06T02:58:01.947Z,4.600000
2022-12-06T02:59:01.098Z,4.000000
2022-12-06T03:00:04.763Z,4.000000
2022-12-06T03:01:01.217Z,4.000000
2022-12-06T03:02:01.283Z,4.000000
2022-12-06T03:03:01.219Z,4.000000
2022-12-06T03:04:01.187Z,0.000000
2022-12-06T03:05:04.067Z,0.000000
2022-12-06T03:06:01.232Z,0.000000
2022-12-06T03:07:01.157Z,0.000000
2022-12-06T03:08:01.316Z,0.000000
2022-12-06T03:09:01.187Z,0.000000
2022-12-06T03:10:04.648Z,0.000000
2022-12-06T03:11:01.178Z,0.000000
2022-12-06T03:12:01.960Z,0.000000
2022-12-06T03:13:00.202Z,0.000000
2022-12-06T03:14:00.277Z,0.000000
2022-12-06T03:15:03.134Z,0.000000
2022-12-06T03:16:00.333Z,0.000000
2022-12-06T03:17:00.195Z,4.100000
2022-12-06T03:18:00.304Z,4.100000
2022-12-06T03:19:00.232Z,4.100000
2022-12-06T03:20:03.764Z,4.000000
2022-12-06T03:21:00.275Z,4.000000
2022-12-06T03:22:00.324Z,0.000000
2022-12-06T03:23:00.272Z,0.000000
2022-12-06T03:24:00.358Z,0.000000
2022-12-06T03:25:03.632Z,4.000000
2022-12-06T03:26:00.372Z,4.000000
2022-12-06T03:27:00.309Z,4.000000
2022-12-06T03:28:00.499Z,4.000000
2022-12-06T03:29:00.306Z,0.000000
2022-12-06T03:30:03.772Z,0.000000
2022-12-06T03:31:00.389Z,0.000000
2022-12-06T03:32:00.413Z,0.000000
2022-12-06T03:33:00.341Z,0.000000
2022-12-06T03:34:00.394Z,0.000000
2022-12-06T03:35:05.083Z,0.000000
2022-12-06T03:36:00.453Z,0.000000
2022-12-06T03:37:00.358Z,0.000000
2022-12-06T03:38:00.454Z,0.000000
2022-12-06T03:39:00.375Z,0.000000
2022-12-06T03:40:03.733Z,0.000000
2022-12-06T03:41:00.385Z,0.000000
2022-12-06T03:42:00.462Z,0.000000
2022-12-06T03:43:00.392Z,0.000000
2022-12-06T03:44:00.899Z,0.000000
2022-12-06T03:45:03.680Z,0.000000
2022-12-06T03:46:00.658Z,0.000000
2022-12-06T03:47:00.487Z,0.000000
2022-12-06T03:48:00.522Z,0.000000
2022-12-06T03:49:00.438Z,0.000000
2022-12-06T03:50:03.873Z,0.000000
2022-12-06T03:51:00.466Z,0.000000
2022-12-06T03:52:00.536Z,0.000000
2022-12-06T03:53:00.461Z,0.000000
2022-12-06T03:54:00.565Z,0.000000
2022-12-06T03:55:03.624Z,0.000000
2022-12-06T03:56:00.595Z,0.000000
2022-12-06T03:57:00.508Z,0.000000
2022-12-06T03:58:00.813Z,0.000000
2022-12-06T03:59:00.517Z,0.000000
2022-12-06T04:00:04.262Z,0.000000
2022-12-06T04:01:00.545Z,0.000000
2022-12-06T04:02:00.694Z,0.000000
2022-12-06T04:03:00.563Z,0.000000
2022-12-06T04:04:00.676Z,0.000000
2022-12-06T04:05:03.779Z,0.000000
2022-12-06T04:06:00.670Z,0.000000
2022-12-06T04:07:00.588Z,0.000000
2022-12-06T04:08:00.733Z,0.000000
2022-12-06T04:09:00.590Z,0.000000
2022-12-06T04:10:03.959Z,0.000000
2022-12-06T04:11:00.587Z,0.000000
2022-12-06T04:12:00.819Z,0.000000
2022-12-06T04:13:00.627Z,0.000000
2022-12-06T04:14:00.727Z,0.000000
2022-12-06T04:15:03.626Z,0.000000
2022-12-06T04:16:00.905Z,0.000000
2022-12-06T04:17:00.654Z,0.000000
2022-12-06T04:18:00.705Z,0.000000
2022-12-06T04:19:00.635Z,0.000000
2022-12-06T04:20:04.568Z,0.000000
2022-12-06T04:21:00.690Z,0.000000
2022-12-06T04:22:00.748Z,0.000000
2022-12-06T04:23:00.704Z,0.000000
2022-12-06T04:24:00.801Z,0.000000
2022-12-06T04:25:03.701Z,0.000000
2022-12-06T04:26:00.964Z,0.000000
2022-12-06T04:27:00.720Z,0.000000
2022-12-06T04:28:00.805Z,4.000000
2022-12-06T04:29:00.738Z,4.000000
2022-12-06T04:30:05.850Z,0.000000
2022-12-06T04:31:00.855Z,0.000000
2022-12-06T04:32:01.063Z,0.000000
2022-12-06T04:33:00.787Z,0.000000
2022-12-06T04:34:00.851Z,0.000000
2022-12-06T04:35:03.751Z,4.400000
2022-12-06T04:36:00.888Z,4.400000
2022-12-06T04:37:00.787Z,4.400000
2022-12-06T04:38:00.903Z,4.000000
2022-12-06T04:39:00.824Z,4.000000
2022-12-06T04:40:04.240Z,4.000000
2022-12-06T04:41:00.811Z,4.600000
2022-12-06T04:42:00.888Z,4.600000
2022-12-06T04:43:00.816Z,4.600000
2022-12-06T04:44:00.929Z,0.000000
2022-12-06T04:45:03.826Z,0.000000
2022-12-06T04:46:00.918Z,0.000000
2022-12-06T04:47:00.877Z,0.000000
2022-12-06T04:48:01.034Z,0.000000
2022-12-06T04:49:00.869Z,0.000000
2022-12-06T04:50:04.325Z,0.000000
2022-12-06T04:51:00.909Z,0.000000
2022-12-06T04:52:00.958Z,0.000000
2022-12-06T04:53:00.883Z,4.800000
2022-12-06T04:54:00.972Z,4.800000
2022-12-06T04:55:04.277Z,4.800000
2022-12-06T04:56:01.009Z,4.800000
2022-12-06T04:57:00.930Z,4.800000
2022-12-06T04:58:00.998Z,4.000000
2022-12-06T04:59:00.921Z,4.000000
2022-12-06T05:00:05.695Z,4.000000
2022-12-06T05:01:01.017Z,0.000000
2022-12-06T05:02:01.063Z,0.000000
2022-12-06T05:03:00.978Z,0.000000
2022-12-06T05:04:01.175Z,0.000000
2022-12-06T05:05:04.325Z,0.000000
2022-12-06T05:06:01.063Z,0.000000
2022-12-06T05:07:01.001Z,0.000000
2022-12-06T05:08:01.179Z,0.000000
2022-12-06T05:09:01.020Z,0.000000
2022-12-06T05:10:05.455Z,0.000000
2022-12-06T05:11:01.019Z,0.000000
2022-12-06T05:12:01.102Z,0.000000
2022-12-06T05:13:01.011Z,0.000000
2022-12-06T05:14:01.110Z,0.000000
2022-12-06T05:15:04.079Z,0.000000
2022-12-06T05:16:01.219Z,0.000000
2022-12-06T05:17:01.043Z,0.000000
2022-12-06T05:18:01.154Z,0.000000
2022-12-06T05:19:01.060Z,0.000000
2022-12-06T05:20:05.854Z,0.000000
2022-12-06T05:21:01.069Z,0.000000
2022-12-06T05:22:01.157Z,0.000000
2022-12-06T05:23:01.080Z,0.000000
2022-12-06T05:24:01.165Z,0.000000
2022-12-06T05:25:05.860Z,0.000000
2022-12-06T05:26:01.213Z,0.000000
2022-12-06T05:27:01.130Z,0.000000
2022-12-06T05:28:01.181Z,0.000000
2022-12-06T05:29:01.110Z,0.000000
2022-12-06T05:30:05.825Z,0.000000
2022-12-06T05:31:01.207Z,0.000000
2022-12-06T05:32:01.296Z,0.000000
2022-12-06T05:33:01.157Z,0.000000
2022-12-06T05:34:01.205Z,0.000000
2022-12-06T05:35:04.538Z,0.000000
2022-12-06T05:36:01.279Z,0.000000
2022-12-06T05:37:01.166Z,0.000000
2022-12-06T05:38:01.256Z,0.000000
2022-12-06T05:39:01.209Z,0.000000
2022-12-06T05:40:05.829Z,0.000000
2022-12-06T05:41:00.188Z,0.000000
2022-12-06T05:42:00.291Z,0.000000
2022-12-06T05:43:00.197Z,0.000000
2022-12-06T05:44:00.853Z,0.000000
2022-12-06T05:45:03.691Z,0.000000
2022-12-06T05:46:00.448Z,0.000000
2022-12-06T05:47:00.252Z,0.000000
2022-12-06T05:48:00.326Z,0.000000
2022-12-06T05:49:00.247Z,0.000000
2022-12-06T05:50:04.120Z,0.000000
2022-12-06T05:51:00.311Z,0.000000
2022-12-06T05:52:03.957Z,0.000000
2022-12-06T05:53:00.270Z,0.000000
2022-12-06T05:54:00.358Z,0.000000
2022-12-06T05:55:03.744Z,0.000000
2022-12-06T05:56:00.371Z,0.000000
2022-12-06T05:57:00.309Z,0.000000
2022-12-06T05:58:00.833Z,0.000000
2022-12-06T05:59:00.305Z,4.300000
2022-12-06T06:00:05.002Z,4.300000
2022-12-06T06:01:00.340Z,4.300000
2022-12-06T06:02:00.753Z,0.000000
2022-12-06T06:03:00.566Z,0.000000
2022-12-06T06:04:00.461Z,0.000000
2022-12-06T06:05:03.806Z,0.000000
2022-12-06T06:06:00.461Z,4.500000
2022-12-06T06:07:00.396Z,4.500000
2022-12-06T06:08:00.536Z,4.500000
2022-12-06T06:09:00.404Z,0.000000
2022-12-06T06:10:03.889Z,0.000000
2022-12-06T06:11:00.408Z,0.000000
2022-12-06T06:12:00.837Z,0.000000
2022-12-06T06:13:00.421Z,0.000000
2022-12-06T06:14:00.544Z,4.000000
2022-12-06T06:15:03.631Z,4.000000
2022-12-06T06:16:00.492Z,0.000000
2022-12-06T06:17:00.498Z,0.000000
2022-12-06T06:18:00.529Z,0.000000
2022-12-06T06:19:00.470Z,4.000000
2022-12-06T06:20:05.702Z,4.000000
2022-12-06T06:21:00.504Z,4.000000
2022-12-06T06:22:00.563Z,4.000000
2022-12-06T06:23:00.493Z,4.000000
2022-12-06T06:24:00.592Z,4.000000
2022-12-06T06:25:03.712Z,0.000000
2022-12-06T06:26:00.866Z,0.000000
2022-12-06T06:27:00.546Z,0.000000
2022-12-06T06:28:00.621Z,0.000000
2022-12-06T06:29:00.542Z,0.000000
2022-12-06T06:30:03.999Z,0.000000
2022-12-06T06:31:00.552Z,0.000000
2022-12-06T06:32:00.669Z,0.000000
2022-12-06T06:33:00.585Z,0.000000
2022-12-06T06:34:00.651Z,0.000000
2022-12-06T06:35:03.741Z,0.000000
2022-12-06T06:36:00.671Z,0.000000
2022-12-06T06:37:00.582Z,0.000000
2022-12-06T06:38:00.713Z,0.000000
2022-12-06T06:39:00.622Z,0.000000
2022-12-06T06:40:13.218Z,0.000000
2022-12-06T06:41:00.638Z,0.000000
2022-12-06T06:42:00.722Z,0.000000
2022-12-06T06:43:00.633Z,0.000000
2022-12-06T06:44:00.888Z,0.000000
2022-12-06T06:45:04.227Z,0.000000
2022-12-06T06:46:00.781Z,0.000000
2022-12-06T06:47:00.679Z,0.000000
2022-12-06T06:48:00.845Z,0.000000
2022-12-06T06:49:00.686Z,0.000000
2022-12-06T06:50:05.497Z,0.000000
2022-12-06T06:51:00.707Z,0.000000
2022-12-06T06:52:00.782Z,0.000000
2022-12-06T06:53:00.699Z,0.000000
2022-12-06T06:54:00.804Z,0.000000
2022-12-06T06:55:05.187Z,0.000000
2022-12-06T06:56:00.862Z,0.000000
2022-12-06T06:57:00.736Z,0.000000
2022-12-06T06:58:00.783Z,0.000000
2022-12-06T06:59:00.744Z,0.000000
2022-12-06T07:00:05.593Z,0.000000
2022-12-06T07:01:00.865Z,0.000000
2022-12-06T07:02:00.926Z,0.000000
2022-12-06T07:03:00.850Z,0.000000
2022-12-06T07:04:00.845Z,0.000000
2022-12-06T07:05:03.863Z,0.000000
2022-12-06T07:06:00.922Z,0.000000
2022-12-06T07:07:00.808Z,0.000000
2022-12-06T07:08:00.957Z,0.000000
2022-12-06T07:09:00.818Z,0.000000
2022-12-06T07:10:05.893Z,0.000000
2022-12-06T07:11:00.826Z,0.000000
2022-12-06T07:12:00.925Z,0.000000
2022-12-06T07:13:00.843Z,0.000000
2022-12-06T07:14:00.923Z,0.000000
2022-12-06T07:15:06.732Z,0.000000
2022-12-06T07:16:00.959Z,0.000000
2022-12-06T07:17:00.954Z,0.000000
2022-12-06T07:18:00.970Z,0.000000
2022-12-06T07:19:06.154Z,0.000000
2022-12-06T07:20:04.577Z,4.000000
2022-12-06T07:21:00.916Z,4.000000
2022-12-06T07:22:00.968Z,0.000000
2022-12-06T07:23:00.920Z,0.000000
2022-12-06T07:24:00.985Z,0.000000
2022-12-06T07:25:04.055Z,0.000000
2022-12-06T07:26:01.025Z,0.000000
2022-12-06T07:27:00.933Z,0.000000
2022-12-06T07:28:01.079Z,0.000000
2022-12-06T07:29:00.960Z,0.000000
2022-12-06T07:30:05.843Z,0.000000
2022-12-06T07:31:01.033Z,0.000000
2022-12-06T07:32:01.052Z,0.000000
2022-12-06T07:33:00.976Z,0.000000
2022-12-06T07:34:01.048Z,0.000000
2022-12-06T07:35:03.984Z,0.000000
2022-12-06T07:36:11.894Z,0.000000
2022-12-06T07:37:00.999Z,0.000000
2022-12-06T07:38:01.085Z,0.000000
2022-12-06T07:39:01.018Z,0.000000
2022-12-06T07:40:04.724Z,0.000000
2022-12-06T07:41:05.197Z,0.000000
2022-12-06T07:42:01.130Z,0.000000
2022-12-06T07:43:01.170Z,0.000000
2022-12-06T07:44:01.152Z,0.000000
2022-12-06T07:45:04.217Z,4.400000
2022-12-06T07:46:01.214Z,4.400000
2022-12-06T07:47:01.051Z,4.400000
2022-12-06T07:48:01.172Z,0.000000
2022-12-06T07:49:01.081Z,0.000000
2022-12-06T07:50:10.575Z,4.000000
2022-12-06T07:51:01.085Z,4.000000
2022-12-06T07:52:01.188Z,5.100000
2022-12-06T07:53:01.105Z,5.100000
2022-12-06T07:54:01.182Z,5.100000
2022-12-06T07:55:04.208Z,0.000000
2022-12-06T07:56:01.210Z,0.000000
2022-12-06T07:57:01.143Z,0.000000
2022-12-06T07:58:01.235Z,0.000000
2022-12-06T07:59:01.133Z,0.000000
2022-12-06T08:00:04.728Z,0.000000
2022-12-06T08:01:01.233Z,0.000000
2022-12-06T08:02:01.348Z,0.000000
2022-12-06T08:03:00.198Z,0.000000
2022-12-06T08:04:00.415Z,0.000000
2022-12-06T08:05:03.741Z,0.000000
2022-12-06T08:06:00.304Z,4.000000
2022-12-06T08:07:00.217Z,4.000000
2022-12-06T08:08:00.970Z,0.000000
2022-12-06T08:09:00.234Z,0.000000
2022-12-06T08:10:05.203Z,0.000000
2022-12-06T08:11:00.273Z,0.000000
2022-12-06T08:12:00.321Z,0.000000
2022-12-06T08:13:00.247Z,0.000000
2022-12-06T08:14:00.352Z,0.000000
2022-12-06T08:15:03.813Z,0.000000
2022-12-06T08:16:00.406Z,0.000000
2022-12-06T08:17:00.287Z,0.000000
2022-12-06T08:18:00.346Z,4.000000
2022-12-06T08:19:00.282Z,4.000000
2022-12-06T08:20:04.028Z,4.000000
2022-12-06T08:21:00.315Z,4.000000
2022-12-06T08:22:00.853Z,4.000000
2022-12-06T08:23:00.312Z,4.000000
2022-12-06T08:24:00.395Z,4.000000
2022-12-06T08:25:03.752Z,4.000000
2022-12-06T08:26:00.448Z,0.000000
2022-12-06T08:27:00.374Z,0.000000
2022-12-06T08:28:00.429Z,4.000000
2022-12-06T08:29:00.363Z,4.000000
2022-12-06T08:30:04.906Z,4.000000
2022-12-06T08:31:03.319Z,4.000000
2022-12-06T08:32:00.469Z,4.000000
2022-12-06T08:33:00.412Z,4.000000
2022-12-06T08:34:00.468Z,4.000000
2022-12-06T08:35:03.716Z,4.000000
2022-12-06T08:36:00.487Z,4.000000
2022-12-06T08:37:03.341Z,4.000000
2022-12-06T08:38:00.504Z,4.000000
2022-12-06T08:39:00.429Z,4.000000
2022-12-06T08:40:05.325Z,0.000000
2022-12-06T08:41:00.435Z,0.000000
2022-12-06T08:42:00.500Z,0.000000
2022-12-06T08:43:00.437Z,0.000000
2022-12-06T08:44:00.879Z,0.000000
2022-12-06T08:45:03.697Z,0.000000
2022-12-06T08:46:00.589Z,0.000000
2022-12-06T08:47:00.482Z,0.000000
2022-12-06T08:48:00.579Z,0.000000
2022-12-06T08:49:00.476Z,0.000000
2022-12-06T08:50:04.006Z,0.000000
2022-12-06T08:51:00.501Z,0.000000
2022-12-06T08:52:00.582Z,0.000000
2022-12-06T08:53:00.485Z,0.000000
2022-12-06T08:54:00.585Z,0.000000
2022-12-06T08:55:03.778Z,0.000000
2022-12-06T08:56:02.987Z,4.800000
2022-12-06T08:57:00.530Z,4.800000
2022-12-06T08:58:00.851Z,4.800000
2022-12-06T08:59:00.521Z,0.000000
2022-12-06T09:00:04.251Z,0.000000
2022-12-06T09:01:00.565Z,4.000000
2022-12-06T09:02:00.788Z,4.000000
2022-12-06T09:03:00.586Z,4.100000
2022-12-06T09:04:00.703Z,4.100000
2022-12-06T09:05:05.835Z,4.000000
2022-12-06T09:06:00.708Z,4.000000
2022-12-06T09:07:00.610Z,4.000000
2022-12-06T09:08:00.783Z,4.900000
2022-12-06T09:09:00.639Z,4.900000
2022-12-06T09:10:03.842Z,4.900000
2022-12-06T09:11:00.662Z,6.000000
2022-12-06T09:12:00.876Z,6.000000
2022-12-06T09:13:00.664Z,6.000000
2022-12-06T09:14:00.769Z,4.000000
2022-12-06T09:15:04.009Z,4.000000
2022-12-06T09:16:00.820Z,0.000000
2022-12-06T09:17:00.681Z,0.000000
2022-12-06T09:18:00.786Z,0.000000
2022-12-06T09:19:00.725Z,0.000000
2022-12-06T09:20:06.420Z,0.000000
2022-12-06T09:21:00.724Z,0.000000
2022-12-06T09:22:00.787Z,4.400000
2022-12-06T09:23:00.722Z,4.400000
2022-12-06T09:24:00.807Z,4.700000
2022-12-06T09:25:03.655Z,4.700000
2022-12-06T09:26:00.874Z,4.200000
2022-12-06T09:27:00.770Z,4.200000
2022-12-06T09:28:00.801Z,0.000000
2022-12-06T09:29:00.758Z,0.000000
2022-12-06T09:30:05.865Z,0.000000
2022-12-06T09:31:00.836Z,0.000000
2022-12-06T09:32:00.860Z,0.000000
2022-12-06T09:33:00.799Z,0.000000
2022-12-06T09:34:00.882Z,0.000000
2022-12-06T09:35:03.773Z,0.000000
2022-12-06T09:36:00.868Z,0.000000
2022-12-06T09:37:00.813Z,0.000000
2022-12-06T09:38:00.913Z,0.000000
2022-12-06T09:39:00.832Z,0.000000
2022-12-06T09:40:05.342Z,0.000000
2022-12-06T09:41:00.830Z,0.000000
2022-12-06T09:42:00.912Z,0.000000
2022-12-06T09:43:00.841Z,0.000000
2022-12-06T09:44:00.939Z,4.000000
2022-12-06T09:45:03.963Z,4.000000
2022-12-06T09:46:00.968Z,0.000000
2022-12-06T09:47:00.950Z,0.000000
2022-12-06T09:48:00.956Z,0.000000
2022-12-06T09:49:00.887Z,0.000000
2022-12-06T09:50:04.194Z,0.000000
2022-12-06T09:51:00.914Z,0.000000
2022-12-06T09:52:00.974Z,4.000000
2022-12-06T09:53:00.899Z,4.000000
2022-12-06T09:54:00.994Z,4.000000
2022-12-06T09:55:04.096Z,0.000000
2022-12-06T09:56:01.039Z,0.000000
2022-12-06T09:57:00.948Z,0.000000
2022-12-06T09:58:01.044Z,0.000000
2022-12-06T09:59:00.958Z,0.000000
2022-12-06T10:00:10.936Z,0.000000
2022-12-06T10:01:01.001Z,0.000000
2022-12-06T10:02:01.180Z,0.000000
2022-12-06T10:03:01.124Z,0.000000
2022-12-06T10:04:01.091Z,0.000000
2022-12-06T10:05:04.000Z,0.000000
2022-12-06T10:06:01.154Z,0.000000
2022-12-06T10:07:01.062Z,4.200000
2022-12-06T10:08:01.387Z,4.200000
2022-12-06T10:09:01.202Z,0.000000
2022-12-06T10:10:04.622Z,0.000000
2022-12-06T10:11:08.136Z,0.000000
2022-12-06T10:12:01.168Z,4.100000
2022-12-06T10:13:01.094Z,4.100000
2022-12-06T10:14:01.193Z,4.100000
2022-12-06T10:15:04.142Z,4.000000
2022-12-06T10:16:01.216Z,4.000000
2022-12-06T10:17:01.132Z,0.000000
2022-12-06T10:18:01.190Z,0.000000
2022-12-06T10:19:01.123Z,4.700000
2022-12-06T10:20:05.902Z,4.700000
2022-12-06T10:21:01.169Z,4.400000
2022-12-06T10:22:01.252Z,4.400000
2022-12-06T10:23:01.159Z,4.900000
2022-12-06T10:24:02.091Z,5.400000
2022-12-06T10:25:04.120Z,5.400000
2022-12-06T10:26:00.266Z,5.400000
2022-12-06T10:27:00.197Z,5.400000
2022-12-06T10:28:00.243Z,5.400000
2022-12-06T10:29:00.197Z,4.900000
2022-12-06T10:30:04.887Z,4.900000
2022-12-06T10:31:00.241Z,4.000000
2022-12-06T10:32:00.322Z,4.000000
2022-12-06T10:33:00.239Z,4.000000
2022-12-06T10:34:00.306Z,4.000000
2022-12-06T10:35:03.966Z,4.000000
2022-12-06T10:36:00.311Z,4.000000
2022-12-06T10:37:00.257Z,0.000000
2022-12-06T10:38:00.387Z,0.000000
2022-12-06T10:39:00.266Z,0.000000
2022-12-06T10:40:03.964Z,0.000000
2022-12-06T10:41:00.276Z,0.000000
2022-12-06T10:42:00.348Z,0.000000
2022-12-06T10:43:00.285Z,0.000000
2022-12-06T10:44:00.876Z,0.000000
2022-12-06T10:45:03.028Z,0.000000
2022-12-06T10:46:04.277Z,0.000000
2022-12-06T10:47:00.439Z,0.000000
2022-12-06T10:48:00.875Z,0.000000
2022-12-06T10:49:00.318Z,0.000000
2022-12-06T10:50:04.003Z,0.000000
2022-12-06T10:51:00.359Z,0.000000
2022-12-06T10:52:00.418Z,0.000000
2022-12-06T10:53:02.036Z,0.000000
2022-12-06T10:54:00.454Z,0.000000
2022-12-06T10:55:05.037Z,0.000000
2022-12-06T10:56:00.454Z,0.000000
2022-12-06T10:57:00.398Z,0.000000
2022-12-06T10:58:00.479Z,0.000000
2022-12-06T10:59:00.405Z,0.000000
2022-12-06T11:00:04.681Z,0.000000
2022-12-06T11:01:00.566Z,0.000000
2022-12-06T11:02:00.890Z,0.000000
2022-12-06T11:03:00.449Z,0.000000
2022-12-06T11:04:00.519Z,0.000000
2022-12-06T11:05:04.729Z,0.000000
2022-12-06T11:06:00.872Z,0.000000
2022-12-06T11:07:00.650Z,0.000000
2022-12-06T11:08:00.600Z,4.600000
2022-12-06T11:09:00.505Z,4.600000
2022-12-06T11:10:04.238Z,4.600000
2022-12-06T11:11:00.500Z,4.600000
2022-12-06T11:12:00.583Z,4.600000
2022-12-06T11:13:00.556Z,4.400000
2022-12-06T11:14:00.563Z,4.400000
2022-12-06T11:15:03.781Z,5.400000
2022-12-06T11:16:00.677Z,5.400000
2022-12-06T11:17:00.545Z,4.900000
2022-12-06T11:18:02.699Z,4.900000
2022-12-06T11:19:00.570Z,4.900000
2022-12-06T11:20:04.160Z,5.400000
2022-12-06T11:21:00.567Z,5.400000
2022-12-06T11:22:00.631Z,5.400000
2022-12-06T11:23:00.565Z,5.400000
2022-12-06T11:24:00.657Z,5.400000
2022-12-06T11:25:03.913Z,6.100000
2022-12-06T11:26:00.691Z,6.100000
2022-12-06T11:27:00.598Z,4.900000
2022-12-06T11:28:33.014Z,4.900000
2022-12-06T11:29:00.604Z,4.900000
2022-12-06T11:30:05.227Z,5.200000
2022-12-06T11:31:00.713Z,5.200000
2022-12-06T11:32:01.021Z,8.000000
2022-12-06T11:33:00.640Z,8.000000
2022-12-06T11:34:00.704Z,8.000000
2022-12-06T11:35:03.890Z,6.400000
2022-12-06T11:36:00.765Z,6.400000
2022-12-06T11:37:00.844Z,6.400000
2022-12-06T11:38:00.736Z,6.400000
2022-12-06T11:39:00.685Z,6.400000
2022-12-06T11:40:04.218Z,6.400000
2022-12-06T11:41:00.705Z,6.400000
2022-12-06T11:42:00.883Z,6.400000
2022-12-06T11:43:00.699Z,5.400000
2022-12-06T11:44:00.911Z,5.400000